Time;durP1;ratioP1;P1;durP2;ratioP2;P2;SDS_P1;SDS_P2;PMS_P1;PMS_P2;Temp;Humidity;BMP_temperature;BMP_pressure;BME280_temperature;BME280_humidity;BME280_pressure;Samples;Min_cycle;Max_cycle;Signal;HPM_P1;HPM_P2
2021/05/16 00:02:25;;;;;;;17.38;9.15;;;10.20;99.90;;;;;;5063437;28;20029;-74
2021/05/16 00:04:50;;;;;;;12.98;8.00;;;10.20;99.90;;;;;;5065011;28;20025;-74
2021/05/16 00:07:16;;;;;;;16.27;9.25;;;10.20;99.90;;;;;;5064916;28;20043;-74
2021/05/16 00:09:42;;;;;;;18.73;9.70;;;10.20;99.90;;;;;;5064526;28;20028;-75
2021/05/16 00:12:09;;;;;;;23.25;9.32;;;10.20;99.90;;;;;;5063047;28;20104;-75
2021/05/16 00:14:36;;;;;;;16.33;8.60;;;10.20;99.90;;;;;;5064751;28;20158;-73
2021/05/16 00:17:04;;;;;;;19.48;9.15;;;10.20;99.90;;;;;;5064151;28;20021;-74
2021/05/16 00:19:29;;;;;;;22.42;10.35;;;10.20;99.90;;;;;;5064579;28;20115;-74
2021/05/16 00:21:55;;;;;;;18.58;9.02;;;10.20;99.90;;;;;;5064525;28;20029;-75
2021/05/16 00:24:21;;;;;;;21.27;11.10;;;10.20;99.90;;;;;;5064494;28;20052;-73
2021/05/16 00:26:46;;;;;;;20.35;10.48;;;10.20;99.90;;;;;;5063535;28;20040;-74
2021/05/16 00:29:12;;;;;;;19.85;9.55;;;10.30;99.90;;;;;;5063159;28;20026;-73
2021/05/16 00:31:38;;;;;;;18.50;8.80;;;10.20;99.90;;;;;;5064137;28;20033;-73
2021/05/16 00:34:03;;;;;;;28.95;10.80;;;10.20;99.90;;;;;;5064473;28;20048;-73
2021/05/16 00:36:29;;;;;;;17.38;9.60;;;10.20;99.90;;;;;;5064043;28;20104;-72
2021/05/16 00:38:58;;;;;;;19.90;9.52;;;10.20;99.90;;;;;;5064207;28;20215;-73
2021/05/16 00:41:24;;;;;;;18.45;9.90;;;10.20;99.90;;;;;;5063370;28;20060;-73
2021/05/16 00:43:50;;;;;;;19.50;9.30;;;10.10;99.90;;;;;;5064452;28;20017;-72
2021/05/16 00:46:16;;;;;;;17.70;9.00;;;10.10;99.90;;;;;;5064469;28;20041;-74
2021/05/16 00:48:41;;;;;;;23.35;10.27;;;10.10;99.90;;;;;;5063360;28;20452;-72
2021/05/16 00:51:10;;;;;;;19.20;9.68;;;10.00;99.90;;;;;;5067831;28;20045;-73
2021/05/16 00:53:36;;;;;;;18.98;8.82;;;10.00;99.90;;;;;;5068137;28;20124;-73
2021/05/16 00:56:02;;;;;;;16.58;9.10;;;10.10;99.90;;;;;;5068393;28;20025;-73
2021/05/16 00:58:28;;;;;;;19.10;9.90;;;10.00;99.90;;;;;;5067802;28;20051;-73
2021/05/16 01:00:55;;;;;;;19.30;9.30;;;10.00;99.90;;;;;;5068622;28;20081;-72
2021/05/16 01:03:21;;;;;;;18.70;8.85;;;10.00;99.90;;;;;;5068198;28;20033;-73
2021/05/16 01:05:47;;;;;;;18.33;8.57;;;10.00;99.90;;;;;;5082092;28;20027;-72
2021/05/16 01:08:13;;;;;;;17.85;8.77;;;10.00;99.90;;;;;;5088250;28;20016;-72
2021/05/16 01:10:39;;;;;;;15.90;8.50;;;10.00;99.90;;;;;;5088127;28;20070;-72
2021/05/16 01:13:06;;;;;;;21.08;9.05;;;10.00;99.90;;;;;;5087788;28;20041;-73
2021/05/16 01:15:33;;;;;;;14.90;8.43;;;9.90;99.90;;;;;;5088084;28;20017;-73
2021/05/16 01:17:59;;;;;;;16.20;6.97;;;9.90;99.90;;;;;;5087605;28;20679;-72
2021/05/16 01:20:29;;;;;;;18.13;9.07;;;10.00;99.90;;;;;;5086621;28;20047;-72
2021/05/16 01:23:06;;;;;;;13.65;8.02;;;10.10;99.90;;;;;;5086806;28;20465;-72
2021/05/16 01:25:35;;;;;;;16.35;8.55;;;10.00;99.90;;;;;;5087646;28;20039;-73
2021/05/16 01:28:01;;;;;;;15.43;8.73;;;10.10;99.90;;;;;;5087657;28;20076;-72
2021/05/16 01:30:27;;;;;;;15.55;7.50;;;10.10;99.90;;;;;;5087835;28;20028;-73
2021/05/16 01:32:53;;;;;;;15.63;8.55;;;10.10;99.90;;;;;;5087653;28;20070;-72
2021/05/16 01:35:20;;;;;;;18.88;7.97;;;10.10;99.90;;;;;;5087775;28;20029;-73
2021/05/16 01:37:47;;;;;;;19.70;8.77;;;10.10;99.90;;;;;;5087776;28;20058;-72
2021/05/16 01:40:13;;;;;;;16.98;7.57;;;10.10;99.90;;;;;;5087414;28;20025;-72
2021/05/16 01:42:45;;;;;;;16.88;7.80;;;10.10;99.90;;;;;;5087547;28;20084;-72
2021/05/16 01:45:13;;;;;;;12.07;6.57;;;10.20;99.90;;;;;;5087625;28;20032;-72
2021/05/16 01:47:38;;;;;;;14.45;7.85;;;10.20;99.90;;;;;;5086969;28;20048;-73
2021/05/16 01:50:08;;;;;;;15.23;7.53;;;10.20;99.90;;;;;;5087312;28;20032;-72
2021/05/16 01:52:34;;;;;;;14.20;7.60;;;10.20;99.90;;;;;;5086432;28;20056;-72
2021/05/16 01:55:00;;;;;;;18.33;7.07;;;10.20;99.90;;;;;;5087066;28;20031;-70
2021/05/16 01:57:27;;;;;;;14.27;6.85;;;10.20;99.90;;;;;;5087549;28;20029;-70
2021/05/16 01:59:54;;;;;;;16.70;8.32;;;10.20;99.90;;;;;;5087117;28;20020;-69
2021/05/16 02:02:20;;;;;;;12.65;6.35;;;10.20;99.90;;;;;;5087274;28;20080;-70
2021/05/16 02:04:46;;;;;;;13.30;6.18;;;10.20;99.90;;;;;;5087433;28;20040;-67
2021/05/16 02:07:13;;;;;;;12.13;6.15;;;10.20;99.90;;;;;;5087115;28;20128;-68
2021/05/16 02:09:39;;;;;;;12.95;6.20;;;10.20;99.90;;;;;;5086692;28;20106;-67
2021/05/16 02:12:06;;;;;;;8.18;4.97;;;10.20;99.90;;;;;;5087154;28;20032;-68
2021/05/16 02:14:33;;;;;;;10.20;5.22;;;10.10;99.90;;;;;;5086900;28;20020;-67
2021/05/16 02:17:01;;;;;;;16.30;5.85;;;10.10;99.90;;;;;;5086733;28;20021;-69
2021/05/16 02:19:27;;;;;;;11.88;6.43;;;10.10;99.90;;;;;;5087022;28;20017;-68
2021/05/16 02:21:53;;;;;;;11.70;5.97;;;10.10;99.90;;;;;;5085450;28;20046;-68
2021/05/16 02:24:20;;;;;;;15.70;7.57;;;10.00;99.90;;;;;;5086693;28;20032;-69
2021/05/16 02:26:46;;;;;;;16.77;7.95;;;10.00;99.90;;;;;;5087000;28;20032;-69
2021/05/16 02:29:13;;;;;;;11.50;6.35;;;10.00;99.90;;;;;;5086744;28;20055;-68
2021/05/16 02:31:39;;;;;;;15.15;6.97;;;10.00;99.90;;;;;;5086757;28;20103;-67
2021/05/16 02:34:05;;;;;;;11.68;6.38;;;9.90;99.90;;;;;;5086637;28;20040;-68
2021/05/16 02:36:31;;;;;;;12.30;6.07;;;9.90;99.90;;;;;;5086263;28;20099;-69
2021/05/16 02:38:57;;;;;;;12.57;5.68;;;9.80;99.90;;;;;;5085200;28;20028;-67
2021/05/16 02:41:23;;;;;;;8.85;4.65;;;9.80;99.90;;;;;;5086818;28;20080;-69
2021/05/16 02:43:48;;;;;;;9.50;4.93;;;9.80;99.90;;;;;;5086457;28;20029;-70
2021/05/16 02:46:14;;;;;;;10.35;4.95;;;9.70;99.90;;;;;;5086405;28;20611;-68
2021/05/16 02:48:40;;;;;;;9.93;5.45;;;9.70;99.90;;;;;;5086701;28;20417;-69
2021/05/16 02:51:06;;;;;;;10.38;5.25;;;9.70;99.90;;;;;;5085313;28;20094;-69
2021/05/16 02:53:32;;;;;;;10.50;5.97;;;9.60;99.90;;;;;;5085990;28;20041;-69
2021/05/16 02:55:58;;;;;;;9.75;5.07;;;9.60;99.90;;;;;;5086303;28;20101;-70
2021/05/16 02:58:24;;;;;;;9.77;4.10;;;9.60;99.90;;;;;;5086012;28;20059;-70
2021/05/16 03:00:49;;;;;;;11.05;5.32;;;9.50;99.90;;;;;;5086450;28;20025;-68
2021/05/16 03:03:15;;;;;;;9.35;4.85;;;9.50;99.90;;;;;;5086012;28;20029;-68
2021/05/16 03:05:41;;;;;;;10.90;4.13;;;9.50;99.90;;;;;;5084365;28;20025;-67
2021/05/16 03:08:07;;;;;;;7.10;4.28;;;9.50;99.90;;;;;;5085895;28;20028;-67
2021/05/16 03:10:32;;;;;;;8.65;4.95;;;9.60;99.90;;;;;;5085960;28;20048;-68
2021/05/16 03:12:58;;;;;;;8.93;5.00;;;9.50;99.90;;;;;;5084746;28;20064;-70
2021/05/16 03:15:23;;;;;;;6.35;3.60;;;9.60;99.90;;;;;;5086043;28;20028;-69
2021/05/16 03:17:49;;;;;;;7.65;4.07;;;9.60;99.90;;;;;;5085918;28;20041;-70
2021/05/16 03:20:15;;;;;;;8.30;4.57;;;9.60;99.90;;;;;;5085727;28;20135;-70
2021/05/16 03:22:41;;;;;;;6.78;3.72;;;9.60;99.90;;;;;;5085544;28;20035;-69
2021/05/16 03:25:09;;;;;;;6.35;4.18;;;9.60;99.90;;;;;;5085695;28;20419;-69
2021/05/16 03:27:34;;;;;;;7.72;4.55;;;9.60;99.90;;;;;;5085293;28;20025;-68
2021/05/16 03:30:00;;;;;;;7.60;4.07;;;9.60;99.90;;;;;;5085551;28;20021;-69
2021/05/16 03:32:25;;;;;;;7.90;4.25;;;9.60;99.90;;;;;;5085421;28;20029;-69
2021/05/16 03:34:51;;;;;;;8.55;4.00;;;9.60;99.90;;;;;;5085034;28;20073;-68
2021/05/16 03:37:18;;;;;;;8.20;4.30;;;9.60;99.90;;;;;;5085662;28;20728;-68
2021/05/16 03:39:43;;;;;;;7.20;3.80;;;9.60;99.90;;;;;;5085643;28;20032;-68
2021/05/16 03:42:09;;;;;;;9.68;4.53;;;9.60;99.90;;;;;;5085116;28;20059;-69
2021/05/16 03:44:34;;;;;;;7.57;3.72;;;9.60;99.90;;;;;;5085290;28;20047;-68
2021/05/16 03:47:00;;;;;;;7.88;4.35;;;9.60;99.90;;;;;;5084995;28;20029;-68
2021/05/16 03:49:26;;;;;;;8.10;4.35;;;9.60;99.90;;;;;;5084900;28;20090;-69
2021/05/16 03:51:52;;;;;;;8.13;4.97;;;9.60;99.90;;;;;;5084885;28;20044;-69
2021/05/16 03:54:17;;;;;;;8.20;4.93;;;9.60;99.90;;;;;;5085323;28;20103;-69
2021/05/16 03:56:43;;;;;;;10.32;5.13;;;9.60;99.90;;;;;;5084769;28;20028;-68
2021/05/16 03:59:09;;;;;;;7.47;4.13;;;9.60;99.90;;;;;;5085175;28;20025;-70
2021/05/16 04:01:35;;;;;;;8.00;4.53;;;9.70;99.90;;;;;;5084664;28;20070;-69
2021/05/16 04:04:01;;;;;;;8.10;4.40;;;9.70;99.90;;;;;;5084944;28;20029;-69
2021/05/16 04:06:26;;;;;;;10.05;4.75;;;9.70;99.90;;;;;;5085130;28;20028;-69
2021/05/16 04:08:52;;;;;;;10.50;4.55;;;9.60;99.90;;;;;;5084640;28;20063;-70
2021/05/16 04:11:17;;;;;;;7.75;4.15;;;9.70;99.90;;;;;;5085207;28;20073;-68
2021/05/16 04:13:43;;;;;;;9.00;4.13;;;9.60;99.90;;;;;;5084651;28;20047;-68
2021/05/16 04:16:09;;;;;;;8.38;4.88;;;9.60;99.90;;;;;;5084680;28;20060;-68
2021/05/16 04:18:34;;;;;;;8.50;4.07;;;9.60;99.90;;;;;;5085062;28;20025;-67
2021/05/16 04:21:01;;;;;;;5.78;3.40;;;9.70;99.90;;;;;;5084730;28;20028;-69
2021/05/16 04:23:27;;;;;;;6.47;3.90;;;9.60;99.90;;;;;;5083501;28;20021;-69
2021/05/16 04:25:53;;;;;;;5.72;3.50;;;9.70;99.90;;;;;;5084848;28;20029;-71
2021/05/16 04:28:18;;;;;;;11.25;3.97;;;9.60;99.90;;;;;;5084928;28;20024;-69
2021/05/16 04:30:44;;;;;;;8.40;4.43;;;9.60;99.90;;;;;;5084505;28;20115;-70
2021/05/16 04:33:10;;;;;;;5.68;3.17;;;9.70;99.90;;;;;;5084736;28;20052;-68
2021/05/16 04:35:38;;;;;;;12.55;3.88;;;9.70;99.90;;;;;;5084477;28;20033;-70
2021/05/16 04:38:04;;;;;;;6.75;4.25;;;9.70;99.90;;;;;;5084525;28;20072;-70
2021/05/16 04:40:29;;;;;;;6.90;3.38;;;9.70;99.90;;;;;;5084631;28;20025;-68
2021/05/16 04:42:55;;;;;;;6.88;3.80;;;9.70;99.90;;;;;;5084210;28;20032;-69
2021/05/16 04:45:21;;;;;;;10.02;4.57;;;9.80;99.90;;;;;;5083392;28;20442;-71
2021/05/16 04:47:47;;;;;;;10.30;4.47;;;9.80;99.90;;;;;;5084943;28;20429;-69
2021/05/16 04:50:15;;;;;;;5.68;3.53;;;9.80;99.90;;;;;;5084247;28;20025;-70
2021/05/16 04:52:40;;;;;;;6.55;3.67;;;9.90;99.90;;;;;;5084178;28;20112;-70
2021/05/16 04:55:06;;;;;;;14.98;4.28;;;9.90;99.90;;;;;;5084438;28;20033;-68
2021/05/16 04:57:32;;;;;;;5.78;3.35;;;9.90;99.90;;;;;;5084064;28;20021;-69
2021/05/16 04:59:58;;;;;;;7.20;4.25;;;9.90;99.90;;;;;;5084468;28;20103;-70
2021/05/16 05:02:23;;;;;;;7.03;4.47;;;10.00;99.90;;;;;;5084562;28;20046;-70
2021/05/16 05:04:50;;;;;;;6.88;4.07;;;10.00;99.90;;;;;;5083035;28;20039;-71
2021/05/16 05:07:16;;;;;;;6.65;3.50;;;10.00;99.90;;;;;;5084290;28;20020;-68
2021/05/16 05:09:42;;;;;;;6.82;4.18;;;10.00;99.90;;;;;;5084512;28;20131;-69
2021/05/16 05:12:08;;;;;;;6.47;3.80;;;10.10;99.90;;;;;;5084093;28;20052;-71
2021/05/16 05:14:33;;;;;;;9.10;4.50;;;10.10;99.90;;;;;;5084169;28;20040;-70
2021/05/16 05:16:59;;;;;;;7.25;3.88;;;10.10;99.90;;;;;;5084215;28;20064;-69
2021/05/16 05:19:25;;;;;;;6.07;3.70;;;10.10;99.90;;;;;;5083972;28;20029;-67
2021/05/16 05:21:51;;;;;;;10.48;4.80;;;10.20;99.90;;;;;;5084124;28;20028;-70
2021/05/16 05:24:17;;;;;;;7.03;4.03;;;10.20;99.90;;;;;;5084388;28;20056;-70
2021/05/16 05:26:42;;;;;;;7.13;3.85;;;10.30;99.90;;;;;;5082503;28;20021;-70
2021/05/16 05:29:08;;;;;;;10.55;4.60;;;10.30;99.90;;;;;;5064288;28;20040;-70
2021/05/16 05:31:34;;;;;;;9.93;5.07;;;10.30;99.90;;;;;;5073365;28;20025;-70
2021/05/16 05:34:00;;;;;;;9.43;4.88;;;10.40;99.90;;;;;;5083717;28;20041;-70
2021/05/16 05:36:29;;;;;;;8.77;4.28;;;10.40;99.90;;;;;;5086945;28;20036;-69
2021/05/16 05:38:55;;;;;;;9.38;4.85;;;10.40;99.90;;;;;;5087603;28;20050;-70
2021/05/16 05:41:20;;;;;;;16.38;5.13;;;10.40;99.90;;;;;;5087914;28;20091;-72
2021/05/16 05:43:46;;;;;;;10.52;5.30;;;10.40;99.90;;;;;;5087778;28;20056;-70
2021/05/16 05:46:11;;;;;;;9.18;4.65;;;10.40;99.90;;;;;;5087419;28;20108;-71
2021/05/16 05:48:38;;;;;;;8.88;5.00;;;10.40;99.90;;;;;;5074708;28;20028;-71
2021/05/16 05:51:04;;;;;;;12.15;5.55;;;10.50;99.90;;;;;;5087384;28;20048;-71
2021/05/16 05:53:30;;;;;;;14.70;6.18;;;10.50;99.90;;;;;;5071659;28;20120;-72
2021/05/16 05:55:55;;;;;;;12.32;6.50;;;10.60;99.90;;;;;;5065950;28;20035;-71
2021/05/16 05:58:21;;;;;;;15.55;6.35;;;10.60;99.90;;;;;;5067684;28;20029;-71
2021/05/16 06:00:46;;;;;;;17.02;7.65;;;10.70;99.90;;;;;;5066638;28;20065;-72
2021/05/16 06:03:12;;;;;;;15.00;7.60;;;10.70;99.90;;;;;;5067114;28;20029;-71
2021/05/16 06:05:38;;;;;;;14.65;7.07;;;10.80;99.90;;;;;;5067174;28;20385;-72
2021/05/16 06:08:03;;;;;;;13.63;7.18;;;10.80;99.90;;;;;;5066940;28;20389;-72
2021/05/16 06:10:29;;;;;;;17.73;7.63;;;10.80;99.90;;;;;;5066757;28;20103;-81
2021/05/16 06:12:55;;;;;;;20.25;9.27;;;10.90;99.90;;;;;;5066980;28;20039;-75
2021/05/16 06:15:22;;;;;;;15.52;7.38;;;10.90;99.90;;;;;;5067088;28;20056;-72
2021/05/16 06:17:55;;;;;;;14.57;8.05;;;10.80;99.90;;;;;;5069129;28;20021;-75
2021/05/16 06:20:21;;;;;;;15.63;8.82;;;10.80;99.90;;;;;;5067129;28;20047;-73
2021/05/16 06:22:46;;;;;;;16.48;7.75;;;10.80;99.90;;;;;;5066564;28;20484;-71
2021/05/16 06:25:12;;;;;;;15.10;7.65;;;10.80;99.90;;;;;;5066153;28;20052;-73
2021/05/16 06:27:38;;;;;;;17.52;7.95;;;10.80;99.90;;;;;;5074331;28;20116;-73
2021/05/16 06:30:05;;;;;;;17.40;7.70;;;10.80;99.90;;;;;;5070352;28;20401;-72
2021/05/16 06:32:31;;;;;;;15.15;7.57;;;10.80;99.90;;;;;;5085246;28;20025;-75
2021/05/16 06:34:56;;;;;;;25.52;8.35;;;10.80;99.90;;;;;;5075413;28;20078;-72
2021/05/16 06:37:22;;;;;;;20.50;8.93;;;10.80;99.90;;;;;;5071548;28;20485;-74
2021/05/16 06:39:48;;;;;;;16.95;8.80;;;10.70;99.90;;;;;;5066785;28;20029;-72
2021/05/16 06:42:13;;;;;;;24.98;9.10;;;10.70;99.90;;;;;;5066185;28;20056;-72
2021/05/16 06:44:39;;;;;;;24.88;8.93;;;10.70;99.90;;;;;;5065989;28;20029;-70
2021/05/16 06:47:05;;;;;;;20.25;9.02;;;10.70;99.90;;;;;;5065121;28;20131;-69
2021/05/16 06:49:30;;;;;;;15.13;7.40;;;10.70;99.90;;;;;;5069046;28;20017;-71
2021/05/16 06:51:56;;;;;;;19.13;9.02;;;10.70;99.90;;;;;;5084077;28;20052;-70
2021/05/16 06:54:22;;;;;;;27.23;10.18;;;10.70;99.90;;;;;;5086386;28;20040;-72
2021/05/16 06:56:47;;;;;;;20.02;9.75;;;10.70;99.90;;;;;;5084868;28;20028;-70
2021/05/16 06:59:13;;;;;;;18.13;9.02;;;10.70;99.90;;;;;;5086095;28;20059;-71
2021/05/16 07:01:39;;;;;;;18.90;8.48;;;10.70;99.90;;;;;;5086167;28;20064;-70
2021/05/16 07:04:04;;;;;;;23.13;10.32;;;10.70;99.90;;;;;;5085570;28;20020;-72
2021/05/16 07:06:32;;;;;;;26.27;11.20;;;10.70;99.90;;;;;;5085760;28;20050;-74
2021/05/16 07:08:57;;;;;;;23.52;9.68;;;10.80;99.90;;;;;;5085818;28;20017;-71
2021/05/16 07:11:23;;;;;;;31.35;9.95;;;10.90;99.90;;;;;;5085598;28;20028;-73
2021/05/16 07:13:49;;;;;;;18.38;8.90;;;11.00;99.90;;;;;;5085340;28;20168;-71
2021/05/16 07:16:14;;;;;;;17.38;8.60;;;11.10;99.90;;;;;;5085643;28;20497;-71
2021/05/16 07:18:40;;;;;;;24.95;10.50;;;11.20;99.90;;;;;;5085551;28;20047;-71
2021/05/16 07:21:06;;;;;;;23.15;9.18;;;11.20;99.90;;;;;;5085298;28;20092;-70
2021/05/16 07:23:31;;;;;;;26.95;10.02;;;11.20;99.90;;;;;;5084165;28;20102;-70
2021/05/16 07:25:59;;;;;;;17.08;8.25;;;11.30;99.90;;;;;;5083778;28;20040;-75
2021/05/16 07:28:24;;;;;;;26.00;9.35;;;11.20;99.90;;;;;;5085172;28;20103;-73
2021/05/16 07:30:50;;;;;;;20.20;8.75;;;11.20;99.90;;;;;;5084664;28;20040;-69
2021/05/16 07:33:16;;;;;;;19.65;9.40;;;11.20;99.90;;;;;;5085221;28;20043;-72
2021/05/16 07:35:42;;;;;;;27.65;10.52;;;11.20;99.90;;;;;;5085102;28;20022;-70
2021/05/16 07:38:08;;;;;;;19.13;9.90;;;11.30;99.90;;;;;;5083913;28;20020;-72
2021/05/16 07:40:36;;;;;;;20.85;8.55;;;11.40;99.90;;;;;;5084474;28;20029;-70
2021/05/16 07:43:02;;;;;;;22.23;8.93;;;11.40;99.90;;;;;;5085375;28;20035;-71
2021/05/16 07:45:28;;;;;;;21.02;9.65;;;11.40;99.90;;;;;;5084755;28;20461;-71
2021/05/16 07:47:53;;;;;;;24.25;10.25;;;11.50;99.90;;;;;;5085186;28;20041;-72
2021/05/16 07:50:19;;;;;;;20.33;8.45;;;11.50;99.90;;;;;;5085253;28;20032;-71
2021/05/16 07:52:45;;;;;;;19.85;8.88;;;11.50;99.90;;;;;;5083684;28;20060;-73
2021/05/16 07:55:11;;;;;;;12.68;7.25;;;11.60;99.90;;;;;;5083664;28;20025;-72
2021/05/16 07:57:37;;;;;;;16.35;8.05;;;11.60;99.90;;;;;;5085027;28;20123;-71
2021/05/16 08:00:06;;;;;;;16.13;7.72;;;11.70;99.90;;;;;;5072240;28;20029;-69
2021/05/16 08:02:31;;;;;;;19.35;8.88;;;11.80;99.90;;;;;;5074937;28;20059;-71
2021/05/16 08:04:58;;;;;;;17.20;8.38;;;11.90;99.90;;;;;;5077182;28;20029;-71
2021/05/16 08:07:24;;;;;;;23.05;8.18;;;12.00;99.90;;;;;;5064451;28;20028;-73
2021/05/16 08:09:50;;;;;;;16.65;8.13;;;12.10;99.90;;;;;;5065198;28;20029;-76
2021/05/16 08:12:15;;;;;;;22.65;7.30;;;12.30;99.90;;;;;;5064717;28;20079;-72
2021/05/16 08:14:41;;;;;;;14.88;7.78;;;12.40;99.90;;;;;;5063819;28;20095;-73
2021/05/16 08:17:06;;;;;;;18.85;7.45;;;12.40;99.90;;;;;;5064817;28;20079;-72
2021/05/16 08:19:32;;;;;;;15.52;7.65;;;12.50;99.90;;;;;;5063245;28;20063;-74
2021/05/16 08:21:58;;;;;;;18.50;9.90;;;12.60;99.90;;;;;;5063783;28;20048;-74
2021/05/16 08:24:23;;;;;;;22.50;7.57;;;12.60;99.90;;;;;;5064680;28;20039;-76
2021/05/16 08:26:49;;;;;;;19.10;7.05;;;12.70;99.90;;;;;;5063278;28;20118;-74
2021/05/16 08:29:15;;;;;;;14.38;6.07;;;12.60;99.90;;;;;;5063235;28;20082;-72
2021/05/16 08:31:40;;;;;;;21.33;7.57;;;12.70;99.90;;;;;;5064932;28;20032;-78
2021/05/16 08:34:07;;;;;;;29.52;8.07;;;12.80;99.90;;;;;;5064231;28;20083;-73
2021/05/16 08:36:39;;;;;;;17.95;6.18;;;12.90;99.90;;;;;;5064051;28;20033;-71
2021/05/16 08:39:06;;;;;;;14.30;6.90;;;12.90;99.90;;;;;;5063172;28;20107;-77
2021/05/16 08:41:34;;;;;;;22.77;8.73;;;12.90;99.90;;;;;;5062183;28;20083;-74
2021/05/16 08:44:00;;;;;;;11.25;5.93;;;12.90;99.90;;;;;;5061383;28;20025;-77
2021/05/16 08:46:27;;;;;;;17.00;7.13;;;12.60;99.90;;;;;;5064036;28;20575;-74
2021/05/16 08:48:53;;;;;;;15.35;7.70;;;12.60;99.90;;;;;;5075185;28;20032;-74
2021/05/16 08:51:21;;;;;;;17.17;7.72;;;12.50;99.90;;;;;;5065647;28;20074;-76
2021/05/16 08:53:47;;;;;;;27.02;7.35;;;12.30;99.90;;;;;;5062657;28;20048;-75
2021/05/16 08:56:13;;;;;;;11.43;6.38;;;12.30;99.90;;;;;;5062766;28;20024;-74
2021/05/16 08:58:39;;;;;;;19.70;7.75;;;12.30;99.90;;;;;;5079158;28;20032;-75
2021/05/16 09:01:24;;;;;;;20.15;8.20;;;12.40;99.90;;;;;;5084280;28;20025;-76
2021/05/16 09:03:50;;;;;;;12.73;6.28;;;12.50;99.90;;;;;;5084362;28;20037;-79
2021/05/16 09:06:17;;;;;;;25.23;7.38;;;12.50;99.90;;;;;;5084371;28;20063;-77
2021/05/16 09:08:44;;;;;;;25.30;6.68;;;12.70;99.90;;;;;;5084498;28;20021;-74
2021/05/16 09:11:09;;;;;;;17.83;6.95;;;12.80;99.90;;;;;;5086807;28;20020;-77
2021/05/16 09:13:46;;;;;;;13.10;6.97;;;12.90;99.90;;;;;;5077884;28;20090;-73
2021/05/16 09:16:16;;;;;;;15.88;7.07;;;13.00;99.90;;;;;;5068007;28;20025;-74
2021/05/16 09:18:54;;;;;;;18.25;6.40;;;13.20;99.90;;;;;;5069203;28;20060;-74
2021/05/16 09:21:32;;;;;;;13.05;5.85;;;13.50;99.90;;;;;;5073651;28;20021;-75
2021/05/16 09:24:03;;;;;;;16.25;7.70;;;13.80;99.90;;;;;;5084206;28;20050;-76
2021/05/16 09:26:30;;;;;;;20.35;7.60;;;13.70;99.90;;;;;;5066463;28;20044;-74
2021/05/16 09:29:17;;;;;;;20.25;5.78;;;13.60;99.90;;;;;;5069075;28;20068;-79
2021/05/16 09:31:43;;;;;;;18.88;7.50;;;13.40;99.90;;;;;;5071276;28;20140;-76
2021/05/16 09:34:11;;;;;;;13.85;6.18;;;13.50;99.90;;;;;;5065506;28;20504;-78
2021/05/16 09:36:39;;;;;;;9.98;5.07;;;13.40;99.90;;;;;;5084624;28;20105;-74
2021/05/16 09:39:24;;;;;;;7.18;4.50;;;13.50;99.90;;;;;;5084417;28;20035;-72
2021/05/16 09:42:05;;;;;;;8.18;4.43;;;13.40;99.90;;;;;;5086551;28;20024;-75
2021/05/16 09:44:48;;;;;;;10.30;4.38;;;13.50;99.90;;;;;;5086863;28;20088;-74
2021/05/16 09:47:15;;;;;;;9.60;4.90;;;13.50;99.90;;;;;;5086131;28;20043;-74
2021/05/16 09:49:43;;;;;;;10.65;4.75;;;13.50;99.90;;;;;;5086814;28;20047;-74
2021/05/16 09:52:14;;;;;;;10.02;4.30;;;13.30;99.90;;;;;;5077784;28;20111;-76
2021/05/16 09:55:01;;;;;;;14.55;5.20;;;13.40;99.90;;;;;;5074391;28;20041;-71
2021/05/16 09:57:41;;;;;;;13.23;4.75;;;13.30;99.90;;;;;;5084724;28;20062;-78
2021/05/16 10:00:09;;;;;;;9.70;4.72;;;13.30;99.90;;;;;;5085821;28;20028;-77
2021/05/16 10:02:36;;;;;;;9.50;4.00;;;13.30;99.90;;;;;;5084205;28;20027;-75
2021/05/16 10:05:04;;;;;;;9.02;4.28;;;13.30;99.90;;;;;;5087360;28;20392;-77
2021/05/16 10:07:30;;;;;;;6.95;3.13;;;13.40;99.90;;;;;;5083297;28;20025;-72
2021/05/16 10:09:57;;;;;;;10.15;4.20;;;13.50;99.90;;;;;;5072563;28;20024;-76
2021/05/16 10:12:23;;;;;;;7.72;5.05;;;13.50;99.90;;;;;;5077173;28;20029;-75
2021/05/16 10:15:13;;;;;;;9.90;3.83;;;13.60;99.90;;;;;;5066550;28;20035;-78
2021/05/16 10:17:42;;;;;;;9.73;3.55;;;13.70;99.90;;;;;;5068116;28;20031;-76
2021/05/16 10:20:13;;;;;;;9.23;4.25;;;14.00;99.90;;;;;;5070887;28;20068;-77
2021/05/16 10:22:39;;;;;;;5.43;3.58;;;14.10;99.90;;;;;;5086447;28;20063;-70
2021/05/16 10:25:06;;;;;;;4.95;2.65;;;14.30;99.90;;;;;;5086116;28;20029;-75
2021/05/16 10:27:46;;;;;;;6.70;3.38;;;14.50;99.90;;;;;;5086415;28;20028;-77
2021/05/16 10:30:16;;;;;;;4.68;2.33;;;14.80;99.90;;;;;;5086526;28;20036;-71
2021/05/16 10:32:50;;;;;;;3.88;2.25;;;15.00;99.90;;;;;;5085121;28;20391;-75
2021/05/16 10:35:16;;;;;;;6.85;2.55;;;15.10;99.90;;;;;;5086356;28;20495;-71
2021/05/16 10:37:50;;;;;;;12.50;2.63;;;15.10;99.90;;;;;;5086412;28;20033;-73
2021/05/16 10:40:42;;;;;;;4.35;2.22;;;14.90;99.90;;;;;;5085503;28;20024;-73
2021/05/16 10:43:26;;;;;;;14.90;3.47;;;14.70;99.90;;;;;;5086225;28;20033;-71
2021/05/16 10:45:52;;;;;;;5.20;3.20;;;14.60;99.90;;;;;;5086454;28;20059;-75
2021/05/16 10:48:20;;;;;;;4.60;2.88;;;14.50;99.90;;;;;;5085227;28;20031;-74
2021/05/16 10:50:58;;;;;;;18.35;5.93;;;14.40;99.90;;;;;;5086084;28;20046;-72
2021/05/16 10:53:29;;;;;;;10.57;4.07;;;14.20;99.90;;;;;;5084897;28;20043;-70
2021/05/16 10:56:19;;;;;;;10.50;3.85;;;14.10;99.90;;;;;;5085781;28;20066;-74
2021/05/16 10:58:47;;;;;;;13.48;3.95;;;13.90;99.90;;;;;;5086255;28;20062;-71
2021/05/16 11:01:30;;;;;;;5.82;3.13;;;13.70;99.90;;;;;;5085521;28;20020;-72
2021/05/16 11:03:58;;;;;;;12.30;3.20;;;13.40;99.90;;;;;;5085731;28;20029;-71
2021/05/16 11:06:46;;;;;;;11.85;3.47;;;13.20;99.90;;;;;;5085458;28;20111;-75
2021/05/16 11:09:14;;;;;;;13.80;4.18;;;13.00;99.90;;;;;;5085717;28;20061;-76
2021/05/16 11:11:41;;;;;;;8.32;3.92;;;12.80;99.90;;;;;;5082306;28;20037;-76
2021/05/16 11:14:13;;;;;;;9.95;3.83;;;12.70;99.90;;;;;;5074143;28;20045;-75
2021/05/16 11:16:57;;;;;;;14.38;3.88;;;12.80;99.90;;;;;;5082931;28;20036;-73
2021/05/16 11:19:26;;;;;;;6.03;3.72;;;12.90;99.90;;;;;;5065893;28;20025;-75
2021/05/16 11:21:52;;;;;;;6.05;3.40;;;13.10;99.90;;;;;;5064441;28;20068;-75
2021/05/16 11:24:37;;;;;;;12.13;4.63;;;13.40;99.90;;;;;;5065716;28;20119;-78
2021/05/16 11:27:20;;;;;;;8.23;4.18;;;13.80;99.90;;;;;;5063935;28;20021;-82
2021/05/16 11:29:55;;;;;;;11.70;4.05;;;14.10;99.90;;;;;;5064898;28;20401;-74
2021/05/16 11:32:28;;;;;;;8.13;3.80;;;14.30;99.90;;;;;;5064825;28;20037;-82
2021/05/16 11:35:02;;;;;;;6.80;4.22;;;14.30;99.90;;;;;;5064796;28;20108;-80
2021/05/16 11:37:30;;;;;;;18.65;4.93;;;14.50;99.90;;;;;;5063775;28;20032;-75
2021/05/16 11:40:15;;;;;;;10.75;5.78;;;14.50;99.90;;;;;;5065279;28;20056;-73
2021/05/16 11:42:42;;;;;;;12.82;5.72;;;14.60;99.90;;;;;;5065335;28;20029;-78
2021/05/16 11:45:09;;;;;;;9.75;5.40;;;14.70;99.90;;;;;;5063604;28;20029;-77
2021/05/16 11:47:42;;;;;;;13.43;4.38;;;14.80;99.90;;;;;;5063882;28;20029;-70
2021/05/16 11:50:10;;;;;;;11.07;4.75;;;15.00;99.90;;;;;;5063365;28;20021;-74
2021/05/16 11:52:36;;;;;;;9.48;4.05;;;14.90;99.90;;;;;;5061955;28;20055;-74
2021/05/16 11:55:06;;;;;;;16.83;5.72;;;14.70;99.90;;;;;;5065081;28;20051;-73
2021/05/16 11:57:37;;;;;;;19.58;5.47;;;14.50;99.90;;;;;;5065145;28;20095;-75
2021/05/16 12:00:07;;;;;;;9.27;5.20;;;14.20;99.90;;;;;;5067016;28;20021;-75
2021/05/16 12:02:36;;;;;;;14.35;5.72;;;13.90;99.90;;;;;;5082977;28;20048;-72
2021/05/16 12:05:04;;;;;;;18.42;9.38;;;13.70;99.90;;;;;;5063399;28;20024;-73
2021/05/16 12:07:29;;;;;;;18.38;6.70;;;13.70;99.90;;;;;;5064329;28;20056;-74
2021/05/16 12:09:56;;;;;;;13.80;7.60;;;13.70;99.90;;;;;;5063796;28;20029;-74
2021/05/16 12:12:25;;;;;;;7.18;4.32;;;13.90;99.90;;;;;;5064794;28;20063;-72
2021/05/16 12:14:55;;;;;;;12.02;5.00;;;14.00;99.90;;;;;;5064541;28;20040;-74
2021/05/16 12:17:29;;;;;;;8.35;3.40;;;14.10;99.90;;;;;;5064750;28;20028;-74
2021/05/16 12:19:54;;;;;;;8.18;3.08;;;14.20;99.90;;;;;;5064578;28;20028;-73
2021/05/16 12:22:20;;;;;;;8.52;3.63;;;14.20;99.90;;;;;;5064587;28;20033;-75
2021/05/16 12:24:48;;;;;;;4.82;2.60;;;14.10;99.90;;;;;;5064817;28;20083;-77
2021/05/16 12:27:16;;;;;;;6.75;2.63;;;14.00;99.90;;;;;;5064624;28;20024;-73
2021/05/16 12:29:43;;;;;;;5.03;2.83;;;13.80;99.90;;;;;;5062870;28;20029;-76
2021/05/16 12:32:10;;;;;;;2.38;1.90;;;13.70;99.90;;;;;;5063235;28;20385;-76
2021/05/16 12:34:36;;;;;;;5.88;2.65;;;13.60;99.90;;;;;;5063908;28;20123;-75
2021/05/16 12:37:13;;;;;;;5.38;2.55;;;13.80;99.90;;;;;;5062995;28;20033;-74
2021/05/16 12:39:44;;;;;;;9.02;2.22;;;14.10;99.90;;;;;;5064526;28;20056;-74
2021/05/16 12:42:33;;;;;;;5.60;2.42;;;14.60;99.90;;;;;;5062530;28;20028;-76
2021/05/16 12:45:23;;;;;;;7.22;1.80;;;14.80;99.90;;;;;;5065501;28;20021;-72
2021/05/16 12:47:58;;;;;;;2.67;1.65;;;14.80;99.90;;;;;;5068559;28;20397;-73